createdAt,value
2017-03-01T00:05:38.328Z,0
2017-03-01T00:15:50.004Z,0
2017-03-01T00:26:01.732Z,0
2017-03-01T00:36:13.477Z,0
2017-03-01T00:46:25.223Z,0
2017-03-01T00:56:36.989Z,0
2017-03-01T01:06:48.780Z,0
2017-03-01T01:17:00.531Z,0
2017-03-01T01:27:12.258Z,0
2017-03-01T01:37:24.176Z,0
2017-03-01T01:47:35.590Z,0
2017-03-01T01:57:47.257Z,0
2017-03-01T02:07:58.925Z,0
2017-03-01T02:18:10.606Z,0
2017-03-01T02:28:22.330Z,0
2017-03-01T02:38:34.040Z,0
2017-03-01T02:48:45.769Z,0
2017-03-01T02:58:57.520Z,0
2017-03-01T03:09:09.299Z,0
2017-03-01T03:19:21.094Z,0
2017-03-01T03:29:32.909Z,0
2017-03-01T03:39:44.757Z,0
2017-03-01T03:49:56.410Z,0
2017-03-01T04:00:08.104Z,0
2017-03-01T04:10:19.822Z,0
2017-03-01T04:20:31.541Z,0
2017-03-01T04:30:43.269Z,0
2017-03-01T04:40:55.023Z,0
2017-03-01T04:51:06.793Z,0
2017-03-01T05:01:18.505Z,0
2017-03-01T05:11:30.210Z,0
2017-03-01T05:21:41.928Z,0
2017-03-01T05:31:53.602Z,0
2017-03-01T05:42:05.298Z,0
2017-03-01T05:52:16.987Z,0
2017-03-01T06:02:28.589Z,0
2017-03-01T06:12:40.187Z,0
2017-03-01T06:22:51.809Z,5
2017-03-01T06:33:03.415Z,5
2017-03-01T06:43:15.033Z,10
2017-03-01T06:53:26.676Z,15
2017-03-01T07:03:38.081Z,45
2017-03-01T07:13:49.536Z,75
2017-03-01T07:24:00.914Z,30
2017-03-01T07:34:12.215Z,100
2017-03-01T07:44:23.460Z,90
2017-03-01T07:54:34.647Z,95
2017-03-01T08:04:45.836Z,60
2017-03-01T08:14:57.068Z,160
2017-03-01T08:25:08.307Z,105
2017-03-01T08:35:19.469Z,160
2017-03-01T08:45:30.535Z,240
2017-03-01T08:55:41.601Z,160
2017-03-01T09:05:52.590Z,285
2017-03-01T09:16:03.607Z,70
2017-03-01T09:26:14.701Z,360
2017-03-01T09:36:25.505Z,675
2017-03-01T09:46:36.295Z,1705
2017-03-01T09:56:46.877Z,1885
2017-03-01T10:06:57.324Z,640
2017-03-01T10:17:07.859Z,805
2017-03-01T10:27:18.066Z,875
2017-03-01T10:37:28.388Z,265
2017-03-01T10:47:38.958Z,540
2017-03-01T10:57:49.493Z,485
2017-03-01T11:08:00.043Z,285
2017-03-01T11:18:10.740Z,570
2017-03-01T11:28:21.447Z,270
2017-03-01T11:38:32.300Z,630
2017-03-01T11:48:43.054Z,740
2017-03-01T11:58:53.711Z,810
2017-03-01T12:09:04.199Z,530
2017-03-01T12:19:14.654Z,675
2017-03-01T12:29:25.016Z,965
2017-03-01T12:39:35.356Z,830
2017-03-01T12:49:45.433Z,3020
2017-03-01T12:59:55.273Z,515
2017-03-01T13:10:05.337Z,715
2017-03-01T13:20:15.483Z,630
2017-03-01T13:30:25.635Z,2420
2017-03-01T13:40:35.626Z,1990
2017-03-01T13:50:45.405Z,620
2017-03-01T14:00:55.344Z,680
2017-03-01T14:11:05.565Z,630
2017-03-01T14:21:15.892Z,605
2017-03-01T14:31:26.205Z,620
2017-03-01T14:41:36.487Z,370
2017-03-01T14:51:46.830Z,925
2017-03-01T15:01:57.018Z,495
2017-03-01T15:12:07.163Z,505
2017-03-01T15:22:17.416Z,325
2017-03-01T15:32:27.833Z,280
2017-03-01T15:42:38.308Z,160
2017-03-01T15:52:48.900Z,175
2017-03-01T16:02:59.519Z,175
2017-03-01T16:13:10.111Z,140
2017-03-01T16:23:20.817Z,95
2017-03-01T16:33:31.616Z,85
2017-03-01T16:43:42.519Z,25
2017-03-01T16:53:53.377Z,20
2017-03-01T17:04:04.205Z,0
2017-03-01T17:14:15.104Z,0
2017-03-01T17:24:26.107Z,0
2017-03-01T17:34:37.160Z,0
2017-03-01T17:44:48.278Z,0
2017-03-01T17:54:59.446Z,0
2017-03-01T18:05:10.569Z,0
2017-03-01T18:15:21.780Z,0
2017-03-01T18:25:32.980Z,0
2017-03-01T18:35:44.159Z,0
2017-03-01T18:45:55.353Z,0
2017-03-01T18:56:06.587Z,0
2017-03-01T19:06:17.961Z,0
2017-03-01T19:16:29.060Z,0
2017-03-01T19:26:40.294Z,0
2017-03-01T19:36:51.503Z,0
2017-03-01T19:47:02.659Z,0
2017-03-01T19:57:13.895Z,0
2017-03-01T20:07:25.028Z,0
2017-03-01T20:17:36.199Z,0
2017-03-01T20:27:47.355Z,0
2017-03-01T20:37:58.482Z,0
2017-03-01T20:48:09.595Z,0
2017-03-01T20:58:20.808Z,0
2017-03-01T21:08:31.983Z,0
2017-03-01T21:18:43.191Z,0
2017-03-01T21:28:54.363Z,0
2017-03-01T21:39:05.583Z,0
2017-03-01T21:49:16.779Z,0
2017-03-01T21:59:28.025Z,0
2017-03-01T22:09:39.250Z,0
2017-03-01T22:19:50.508Z,0
2017-03-01T22:30:01.778Z,0
2017-03-01T22:40:13.080Z,0
2017-03-01T22:50:24.399Z,0
2017-03-01T23:00:35.664Z,0
2017-03-01T23:10:46.913Z,0
2017-03-01T23:20:58.217Z,0
2017-03-01T23:31:09.490Z,0
2017-03-01T23:41:20.772Z,0
2017-03-01T23:51:32.086Z,0
